Saint Stephen, United Kingdom
Current Conditions -  °F | °C
As of 7:20 AM on Friday 31 Oct 2014 (Local Time) from EGHQ Reporting Station
Clear Clear  
Wind Chill: 15°   Ceiling: Unl
Heat Index: 15°   Visibility: 6mi
Dew Point: 13°   Wind: 23mph
Humidity: 88%   Direction: 160°SSE
Pressure: 29.88"   Gusts: NA
Location:  50.33°N, 4.9°W
Report Text: EGHQ 310720Z 16020KT CAVOK 15/13 Q1012
Loading
Personal Weather Stations






























Interactive Weather Map
Tropical Storm Tracking
New forecast layout! Learn more

10-Day Weather Forecast

Advertisements
Track Severe Weather on mobile